sensor_id;sensor_type;location;lat;lon;timestamp;temperature;humidity
10388;DHT22;5240;51.128;4.566;2023-05-09T00:00:29;14.80;99.90
10388;DHT22;5240;51.128;4.566;2023-05-09T00:02:56;15.00;99.90
10388;DHT22;5240;51.128;4.566;2023-05-09T00:05:23;14.80;99.90
10388;DHT22;5240;51.128;4.566;2023-05-09T00:07:50;14.80;99.90
10388;DHT22;5240;51.128;4.566;2023-05-09T00:10:17;15.00;99.90
10388;DHT22;5240;51.128;4.566;2023-05-09T00:12:46;14.80;99.90
10388;DHT22;5240;51.128;4.566;2023-05-09T00:15:14;14.70;99.90
10388;DHT22;5240;51.128;4.566;2023-05-09T00:17:41;14.90;99.90
10388;DHT22;5240;51.128;4.566;2023-05-09T00:20:10;14.70;99.90
10388;DHT22;5240;51.128;4.566;2023-05-09T00:22:38;14.70;99.90
10388;DHT22;5240;51.128;4.566;2023-05-09T00:25:06;14.60;99.90
10388;DHT22;5240;51.128;4.566;2023-05-09T00:27:33;14.70;99.90
10388;DHT22;5240;51.128;4.566;2023-05-09T00:30:03;14.90;99.90
10388;DHT22;5240;51.128;4.566;2023-05-09T00:32:31;14.90;99.90
10388;DHT22;5240;51.128;4.566;2023-05-09T00:34:58;14.70;99.90
10388;DHT22;5240;51.128;4.566;2023-05-09T00:37:25;14.90;99.90
10388;DHT22;5240;51.128;4.566;2023-05-09T00:39:52;14.70;99.90
10388;DHT22;5240;51.128;4.566;2023-05-09T00:42:19;14.60;99.90
10388;DHT22;5240;51.128;4.566;2023-05-09T00:44:46;14.70;99.90
10388;DHT22;5240;51.128;4.566;2023-05-09T00:47:15;14.80;99.90
10388;DHT22;5240;51.128;4.566;2023-05-09T00:49:42;14.70;99.90
10388;DHT22;5240;51.128;4.566;2023-05-09T00:52:09;14.80;99.90
10388;DHT22;5240;51.128;4.566;2023-05-09T00:54:36;14.60;99.90
10388;DHT22;5240;51.128;4.566;2023-05-09T00:57:03;14.70;99.90
10388;DHT22;5240;51.128;4.566;2023-05-09T00:59:30;14.60;99.90
10388;DHT22;5240;51.128;4.566;2023-05-09T01:01:57;14.60;99.90
10388;DHT22;5240;51.128;4.566;2023-05-09T01:04:26;14.60;99.90
10388;DHT22;5240;51.128;4.566;2023-05-09T01:07:00;14.60;99.90
10388;DHT22;5240;51.128;4.566;2023-05-09T01:09:34;14.70;99.90
10388;DHT22;5240;51.128;4.566;2023-05-09T01:12:10;14.60;99.90
10388;DHT22;5240;51.128;4.566;2023-05-09T01:14:50;14.60;99.90
10388;DHT22;5240;51.128;4.566;2023-05-09T01:17:28;14.50;99.90
10388;DHT22;5240;51.128;4.566;2023-05-09T01:20:06;14.60;99.90
10388;DHT22;5240;51.128;4.566;2023-05-09T01:22:38;14.60;99.90
10388;DHT22;5240;51.128;4.566;2023-05-09T01:28:12;14.60;99.90
10388;DHT22;5240;51.128;4.566;2023-05-09T01:30:44;14.50;99.90
10388;DHT22;5240;51.128;4.566;2023-05-09T01:33:15;14.50;99.90
10388;DHT22;5240;51.128;4.566;2023-05-09T01:35:49;14.60;99.90
10388;DHT22;5240;51.128;4.566;2023-05-09T01:38:20;14.50;99.90
10388;DHT22;5240;51.128;4.566;2023-05-09T01:40:53;14.60;99.90
10388;DHT22;5240;51.128;4.566;2023-05-09T01:43:22;14.50;99.90
10388;DHT22;5240;51.128;4.566;2023-05-09T01:45:53;14.50;99.90
10388;DHT22;5240;51.128;4.566;2023-05-09T01:48:21;14.50;99.90
10388;DHT22;5240;51.128;4.566;2023-05-09T01:50:51;14.30;99.90
10388;DHT22;5240;51.128;4.566;2023-05-09T01:53:19;14.30;99.90
10388;DHT22;5240;51.128;4.566;2023-05-09T01:55:49;14.40;99.90
10388;DHT22;5240;51.128;4.566;2023-05-09T01:58:17;14.60;99.90
10388;DHT22;5240;51.128;4.566;2023-05-09T02:00:46;14.30;99.90
10388;DHT22;5240;51.128;4.566;2023-05-09T02:03:15;14.50;99.90
10388;DHT22;5240;51.128;4.566;2023-05-09T02:05:43;14.30;99.90
10388;DHT22;5240;51.128;4.566;2023-05-09T02:08:13;14.50;99.90
10388;DHT22;5240;51.128;4.566;2023-05-09T02:10:41;14.50;99.90
10388;DHT22;5240;51.128;4.566;2023-05-09T02:13:10;14.40;99.90
10388;DHT22;5240;51.128;4.566;2023-05-09T02:15:37;14.30;99.90
10388;DHT22;5240;51.128;4.566;2023-05-09T02:18:05;14.60;99.90
10388;DHT22;5240;51.128;4.566;2023-05-09T02:20:33;14.50;99.90
10388;DHT22;5240;51.128;4.566;2023-05-09T02:23:01;14.50;99.90
10388;DHT22;5240;51.128;4.566;2023-05-09T02:25:28;14.40;99.90
10388;DHT22;5240;51.128;4.566;2023-05-09T02:27:57;14.40;99.90
10388;DHT22;5240;51.128;4.566;2023-05-09T02:30:25;14.40;99.90
10388;DHT22;5240;51.128;4.566;2023-05-09T02:33:01;14.50;99.90
10388;DHT22;5240;51.128;4.566;2023-05-09T02:35:29;14.40;99.90
10388;DHT22;5240;51.128;4.566;2023-05-09T02:37:58;14.40;99.90
10388;DHT22;5240;51.128;4.566;2023-05-09T02:40:27;14.30;99.90
10388;DHT22;5240;51.128;4.566;2023-05-09T02:42:55;14.30;99.90
10388;DHT22;5240;51.128;4.566;2023-05-09T02:45:22;14.30;99.90
10388;DHT22;5240;51.128;4.566;2023-05-09T02:47:49;14.30;99.90
10388;DHT22;5240;51.128;4.566;2023-05-09T02:50:16;14.40;99.90
10388;DHT22;5240;51.128;4.566;2023-05-09T02:52:43;14.20;99.90
10388;DHT22;5240;51.128;4.566;2023-05-09T02:55:12;14.30;99.90
10388;DHT22;5240;51.128;4.566;2023-05-09T02:57:39;14.30;99.90
10388;DHT22;5240;51.128;4.566;2023-05-09T03:00:07;14.50;99.90
10388;DHT22;5240;51.128;4.566;2023-05-09T03:02:35;14.40;99.90
10388;DHT22;5240;51.128;4.566;2023-05-09T03:05:02;14.30;99.90
10388;DHT22;5240;51.128;4.566;2023-05-09T03:07:29;14.30;99.90
10388;DHT22;5240;51.128;4.566;2023-05-09T03:09:56;14.40;99.90
10388;DHT22;5240;51.128;4.566;2023-05-09T03:12:25;14.40;99.90
10388;DHT22;5240;51.128;4.566;2023-05-09T03:14:52;14.50;99.90
10388;DHT22;5240;51.128;4.566;2023-05-09T03:17:19;14.50;99.90
10388;DHT22;5240;51.128;4.566;2023-05-09T03:19:47;14.50;99.90
10388;DHT22;5240;51.128;4.566;2023-05-09T03:22:14;14.40;99.90
10388;DHT22;5240;51.128;4.566;2023-05-09T03:24:41;14.50;99.90
10388;DHT22;5240;51.128;4.566;2023-05-09T03:27:08;14.50;99.90
10388;DHT22;5240;51.128;4.566;2023-05-09T03:29:37;14.60;99.90
10388;DHT22;5240;51.128;4.566;2023-05-09T03:32:04;14.50;99.90
10388;DHT22;5240;51.128;4.566;2023-05-09T03:34:31;14.50;99.90
10388;DHT22;5240;51.128;4.566;2023-05-09T03:36:58;14.60;99.90
10388;DHT22;5240;51.128;4.566;2023-05-09T03:39:25;14.40;99.90
10388;DHT22;5240;51.128;4.566;2023-05-09T03:41:52;14.50;99.90
10388;DHT22;5240;51.128;4.566;2023-05-09T03:44:19;14.60;99.90
10388;DHT22;5240;51.128;4.566;2023-05-09T03:46:48;14.50;99.90
10388;DHT22;5240;51.128;4.566;2023-05-09T03:49:15;14.60;99.90
10388;DHT22;5240;51.128;4.566;2023-05-09T03:51:42;14.60;99.90
10388;DHT22;5240;51.128;4.566;2023-05-09T03:54:09;14.70;99.90
10388;DHT22;5240;51.128;4.566;2023-05-09T03:56:36;14.60;99.90
10388;DHT22;5240;51.128;4.566;2023-05-09T03:59:03;14.50;99.90
10388;DHT22;5240;51.128;4.566;2023-05-09T04:01:31;14.10;99.90
10388;DHT22;5240;51.128;4.566;2023-05-09T04:03:59;14.80;99.90
10388;DHT22;5240;51.128;4.566;2023-05-09T04:06:26;14.70;99.90
10388;DHT22;5240;51.128;4.566;2023-05-09T04:08:54;14.70;99.90
10388;DHT22;5240;51.128;4.566;2023-05-09T04:11:21;14.70;99.90
10388;DHT22;5240;51.128;4.566;2023-05-09T04:13:48;14.70;99.90
10388;DHT22;5240;51.128;4.566;2023-05-09T04:16:15;14.60;99.90
10388;DHT22;5240;51.128;4.566;2023-05-09T04:18:42;14.70;99.90
10388;DHT22;5240;51.128;4.566;2023-05-09T04:21:11;14.70;99.90
10388;DHT22;5240;51.128;4.566;2023-05-09T04:23:38;14.80;99.90
10388;DHT22;5240;51.128;4.566;2023-05-09T04:26:05;14.70;99.90
10388;DHT22;5240;51.128;4.566;2023-05-09T04:28:34;14.50;99.90
10388;DHT22;5240;51.128;4.566;2023-05-09T04:31:01;14.60;99.90
10388;DHT22;5240;51.128;4.566;2023-05-09T04:33:28;14.70;99.90
10388;DHT22;5240;51.128;4.566;2023-05-09T04:35:55;14.50;99.90
10388;DHT22;5240;51.128;4.566;2023-05-09T04:38:23;14.60;99.90
10388;DHT22;5240;51.128;4.566;2023-05-09T04:40:50;14.60;99.90
10388;DHT22;5240;51.128;4.566;2023-05-09T04:43:17;14.50;99.90
10388;DHT22;5240;51.128;4.566;2023-05-09T04:45:44;14.40;99.90
10388;DHT22;5240;51.128;4.566;2023-05-09T04:48:12;14.50;99.90
10388;DHT22;5240;51.128;4.566;2023-05-09T04:50:40;14.40;99.90
10388;DHT22;5240;51.128;4.566;2023-05-09T04:53:07;14.40;99.90
10388;DHT22;5240;51.128;4.566;2023-05-09T04:55:36;14.40;99.90
10388;DHT22;5240;51.128;4.566;2023-05-09T04:58:04;14.30;99.90
10388;DHT22;5240;51.128;4.566;2023-05-09T05:00:31;14.30;99.90
10388;DHT22;5240;51.128;4.566;2023-05-09T05:02:58;14.30;99.90
10388;DHT22;5240;51.128;4.566;2023-05-09T05:05:25;14.40;99.90
10388;DHT22;5240;51.128;4.566;2023-05-09T05:07:52;14.30;99.90
10388;DHT22;5240;51.128;4.566;2023-05-09T05:10:19;14.30;99.90
10388;DHT22;5240;51.128;4.566;2023-05-09T05:12:47;14.30;99.90
10388;DHT22;5240;51.128;4.566;2023-05-09T05:15:14;14.40;99.90
10388;DHT22;5240;51.128;4.566;2023-05-09T05:17:43;14.40;99.90
10388;DHT22;5240;51.128;4.566;2023-05-09T05:20:11;14.30;99.90
10388;DHT22;5240;51.128;4.566;2023-05-09T05:22:38;14.30;99.90
10388;DHT22;5240;51.128;4.566;2023-05-09T05:25:06;14.40;99.90
10388;DHT22;5240;51.128;4.566;2023-05-09T05:27:33;14.40;99.90
10388;DHT22;5240;51.128;4.566;2023-05-09T05:30:02;14.50;99.90
10388;DHT22;5240;51.128;4.566;2023-05-09T05:32:30;14.40;99.90
10388;DHT22;5240;51.128;4.566;2023-05-09T05:34:58;14.40;99.90
10388;DHT22;5240;51.128;4.566;2023-05-09T05:37:27;14.50;99.90
10388;DHT22;5240;51.128;4.566;2023-05-09T05:39:54;14.50;99.90
10388;DHT22;5240;51.128;4.566;2023-05-09T05:42:21;14.50;99.90
10388;DHT22;5240;51.128;4.566;2023-05-09T05:44:48;14.40;99.90
10388;DHT22;5240;51.128;4.566;2023-05-09T05:47:16;14.50;99.90
10388;DHT22;5240;51.128;4.566;2023-05-09T05:49:43;14.50;99.90
10388;DHT22;5240;51.128;4.566;2023-05-09T05:52:10;14.50;99.90
10388;DHT22;5240;51.128;4.566;2023-05-09T05:54:37;14.50;99.90
10388;DHT22;5240;51.128;4.566;2023-05-09T05:57:04;14.40;99.90
10388;DHT22;5240;51.128;4.566;2023-05-09T05:59:32;14.40;99.90
10388;DHT22;5240;51.128;4.566;2023-05-09T06:01:59;14.40;99.90
10388;DHT22;5240;51.128;4.566;2023-05-09T06:04:28;14.50;99.90
10388;DHT22;5240;51.128;4.566;2023-05-09T06:06:55;14.50;99.90
10388;DHT22;5240;51.128;4.566;2023-05-09T06:09:22;14.50;99.90
10388;DHT22;5240;51.128;4.566;2023-05-09T06:11:49;14.50;99.90
10388;DHT22;5240;51.128;4.566;2023-05-09T06:14:16;14.50;99.90
10388;DHT22;5240;51.128;4.566;2023-05-09T06:16:43;14.50;99.90
10388;DHT22;5240;51.128;4.566;2023-05-09T06:19:14;14.50;99.90
10388;DHT22;5240;51.128;4.566;2023-05-09T06:21:43;14.50;99.90
10388;DHT22;5240;51.128;4.566;2023-05-09T06:24:10;14.50;99.90
10388;DHT22;5240;51.128;4.566;2023-05-09T06:26:38;14.50;99.90
10388;DHT22;5240;51.128;4.566;2023-05-09T06:29:05;14.50;99.90
10388;DHT22;5240;51.128;4.566;2023-05-09T06:31:55;14.50;99.90
10388;DHT22;5240;51.128;4.566;2023-05-09T06:37:38;14.50;99.90
10388;DHT22;5240;51.128;4.566;2023-05-09T06:40:34;14.50;99.90
10388;DHT22;5240;51.128;4.566;2023-05-09T06:43:37;14.50;99.90
10388;DHT22;5240;51.128;4.566;2023-05-09T06:46:20;14.60;99.90
10388;DHT22;5240;51.128;4.566;2023-05-09T06:49:01;14.60;99.90
10388;DHT22;5240;51.128;4.566;2023-05-09T07:14:04;14.80;99.90
10388;DHT22;5240;51.128;4.566;2023-05-09T07:19:11;14.80;99.90
10388;DHT22;5240;51.128;4.566;2023-05-09T07:21:39;14.90;99.90
10388;DHT22;5240;51.128;4.566;2023-05-09T07:24:07;15.00;99.90
10388;DHT22;5240;51.128;4.566;2023-05-09T07:26:34;15.00;99.90
10388;DHT22;5240;51.128;4.566;2023-05-09T07:29:03;15.00;99.90
10388;DHT22;5240;51.128;4.566;2023-05-09T07:31:30;15.10;99.90
10388;DHT22;5240;51.128;4.566;2023-05-09T07:34:04;15.00;99.90
10388;DHT22;5240;51.128;4.566;2023-05-09T07:36:31;15.10;99.90
10388;DHT22;5240;51.128;4.566;2023-05-09T07:38:58;15.00;99.90
10388;DHT22;5240;51.128;4.566;2023-05-09T07:41:25;15.00;99.90
10388;DHT22;5240;51.128;4.566;2023-05-09T07:43:55;15.10;99.90
10388;DHT22;5240;51.128;4.566;2023-05-09T07:46:27;15.10;99.90
10388;DHT22;5240;51.128;4.566;2023-05-09T07:48:55;15.10;99.90
10388;DHT22;5240;51.128;4.566;2023-05-09T07:51:36;15.20;99.90
10388;DHT22;5240;51.128;4.566;2023-05-09T07:54:03;15.10;99.90
10388;DHT22;5240;51.128;4.566;2023-05-09T07:56:30;15.20;99.90
10388;DHT22;5240;51.128;4.566;2023-05-09T07:58:59;15.10;99.90
10388;DHT22;5240;51.128;4.566;2023-05-09T08:01:28;15.20;99.90
10388;DHT22;5240;51.128;4.566;2023-05-09T08:03:55;15.10;99.90
10388;DHT22;5240;51.128;4.566;2023-05-09T08:06:24;15.10;99.90
10388;DHT22;5240;51.128;4.566;2023-05-09T08:08:51;15.10;99.90
10388;DHT22;5240;51.128;4.566;2023-05-09T08:11:36;15.10;99.90
10388;DHT22;5240;51.128;4.566;2023-05-09T08:14:05;15.10;99.90
10388;DHT22;5240;51.128;4.566;2023-05-09T08:16:34;15.10;99.90
10388;DHT22;5240;51.128;4.566;2023-05-09T08:19:01;15.20;99.90
10388;DHT22;5240;51.128;4.566;2023-05-09T08:21:28;15.20;99.90
10388;DHT22;5240;51.128;4.566;2023-05-09T08:23:56;15.30;99.90
10388;DHT22;5240;51.128;4.566;2023-05-09T08:26:24;15.30;99.90
10388;DHT22;5240;51.128;4.566;2023-05-09T08:28:52;15.20;99.90
10388;DHT22;5240;51.128;4.566;2023-05-09T08:31:21;15.20;99.90
10388;DHT22;5240;51.128;4.566;2023-05-09T08:33:50;15.10;99.90
10388;DHT22;5240;51.128;4.566;2023-05-09T08:36:17;15.10;99.90
10388;DHT22;5240;51.128;4.566;2023-05-09T08:38:45;15.20;99.90
10388;DHT22;5240;51.128;4.566;2023-05-09T08:41:12;15.20;99.90
10388;DHT22;5240;51.128;4.566;2023-05-09T08:43:40;15.20;99.90
10388;DHT22;5240;51.128;4.566;2023-05-09T08:46:25;15.20;99.90
10388;DHT22;5240;51.128;4.566;2023-05-09T08:48:56;15.10;99.90
10388;DHT22;5240;51.128;4.566;2023-05-09T08:51:24;15.10;99.90
10388;DHT22;5240;51.128;4.566;2023-05-09T08:53:52;15.20;99.90
10388;DHT22;5240;51.128;4.566;2023-05-09T08:56:19;15.10;99.90
10388;DHT22;5240;51.128;4.566;2023-05-09T08:58:46;15.10;99.90
10388;DHT22;5240;51.128;4.566;2023-05-09T09:01:15;15.00;99.90
10388;DHT22;5240;51.128;4.566;2023-05-09T09:03:49;15.00;99.90
10388;DHT22;5240;51.128;4.566;2023-05-09T09:09:46;15.00;99.90
10388;DHT22;5240;51.128;4.566;2023-05-09T09:14:56;15.10;99.90
10388;DHT22;5240;51.128;4.566;2023-05-09T09:17:32;15.20;99.90
10388;DHT22;5240;51.128;4.566;2023-05-09T09:25:31;15.10;99.90
10388;DHT22;5240;51.128;4.566;2023-05-09T09:28:00;15.00;99.90
10388;DHT22;5240;51.128;4.566;2023-05-09T09:30:28;15.00;99.90
10388;DHT22;5240;51.128;4.566;2023-05-09T09:32:58;15.10;99.90
10388;DHT22;5240;51.128;4.566;2023-05-09T09:35:26;15.10;99.90
10388;DHT22;5240;51.128;4.566;2023-05-09T09:37:56;15.10;99.90
10388;DHT22;5240;51.128;4.566;2023-05-09T09:40:24;15.10;99.90
10388;DHT22;5240;51.128;4.566;2023-05-09T09:42:53;15.00;99.90
10388;DHT22;5240;51.128;4.566;2023-05-09T09:45:20;15.00;99.90
10388;DHT22;5240;51.128;4.566;2023-05-09T09:47:50;15.00;99.90
10388;DHT22;5240;51.128;4.566;2023-05-09T09:50:20;15.10;99.90
10388;DHT22;5240;51.128;4.566;2023-05-09T09:52:54;15.20;99.90
10388;DHT22;5240;51.128;4.566;2023-05-09T09:55:23;15.20;99.90
10388;DHT22;5240;51.128;4.566;2023-05-09T09:57:55;15.10;99.90
10388;DHT22;5240;51.128;4.566;2023-05-09T10:00:24;15.10;99.90
10388;DHT22;5240;51.128;4.566;2023-05-09T10:02:54;15.10;99.90
10388;DHT22;5240;51.128;4.566;2023-05-09T10:05:25;15.10;99.90
10388;DHT22;5240;51.128;4.566;2023-05-09T10:08:04;15.10;99.90
10388;DHT22;5240;51.128;4.566;2023-05-09T10:10:45;15.20;99.90
10388;DHT22;5240;51.128;4.566;2023-05-09T10:16:28;15.30;99.90
10388;DHT22;5240;51.128;4.566;2023-05-09T10:18:55;15.30;99.90
10388;DHT22;5240;51.128;4.566;2023-05-09T10:21:22;15.20;99.90
10388;DHT22;5240;51.128;4.566;2023-05-09T10:23:49;15.20;99.90
10388;DHT22;5240;51.128;4.566;2023-05-09T10:26:22;15.10;99.90
10388;DHT22;5240;51.128;4.566;2023-05-09T10:28:54;15.00;99.90
10388;DHT22;5240;51.128;4.566;2023-05-09T10:31:25;15.00;99.90
10388;DHT22;5240;51.128;4.566;2023-05-09T10:33:54;14.90;99.90
10388;DHT22;5240;51.128;4.566;2023-05-09T10:36:22;14.90;99.90
10388;DHT22;5240;51.128;4.566;2023-05-09T10:38:50;14.90;99.90
10388;DHT22;5240;51.128;4.566;2023-05-09T10:41:19;14.90;99.90
10388;DHT22;5240;51.128;4.566;2023-05-09T10:43:48;14.80;99.90
10388;DHT22;5240;51.128;4.566;2023-05-09T10:46:18;14.80;99.90
10388;DHT22;5240;51.128;4.566;2023-05-09T10:48:46;14.90;99.90
10388;DHT22;5240;51.128;4.566;2023-05-09T10:51:16;14.90;99.90
10388;DHT22;5240;51.128;4.566;2023-05-09T10:53:45;14.90;99.90
10388;DHT22;5240;51.128;4.566;2023-05-09T10:56:23;15.00;99.90
10388;DHT22;5240;51.128;4.566;2023-05-09T10:58:54;15.10;99.90
10388;DHT22;5240;51.128;4.566;2023-05-09T11:04:08;15.10;99.90
10388;DHT22;5240;51.128;4.566;2023-05-09T11:06:42;15.20;99.90
10388;DHT22;5240;51.128;4.566;2023-05-09T11:09:30;15.10;99.90
10388;DHT22;5240;51.128;4.566;2023-05-09T11:12:10;15.20;99.90
10388;DHT22;5240;51.128;4.566;2023-05-09T11:14:39;15.00;99.90
10388;DHT22;5240;51.128;4.566;2023-05-09T11:17:07;15.10;99.90
10388;DHT22;5240;51.128;4.566;2023-05-09T11:19:58;15.00;99.90
10388;DHT22;5240;51.128;4.566;2023-05-09T11:22:29;15.10;99.90
10388;DHT22;5240;51.128;4.566;2023-05-09T11:25:03;15.00;99.90
10388;DHT22;5240;51.128;4.566;2023-05-09T11:27:38;15.10;99.90
10388;DHT22;5240;51.128;4.566;2023-05-09T11:30:08;15.10;99.90
10388;DHT22;5240;51.128;4.566;2023-05-09T11:32:41;15.10;99.90
10388;DHT22;5240;51.128;4.566;2023-05-09T11:35:10;15.20;99.90
10388;DHT22;5240;51.128;4.566;2023-05-09T11:37:44;15.20;99.90
10388;DHT22;5240;51.128;4.566;2023-05-09T11:40:13;15.20;99.90
10388;DHT22;5240;51.128;4.566;2023-05-09T11:42:43;15.10;99.90
10388;DHT22;5240;51.128;4.566;2023-05-09T11:45:11;15.00;99.90
10388;DHT22;5240;51.128;4.566;2023-05-09T11:47:39;15.00;99.90
10388;DHT22;5240;51.128;4.566;2023-05-09T11:50:10;15.00;99.90
10388;DHT22;5240;51.128;4.566;2023-05-09T11:52:40;15.00;99.90
10388;DHT22;5240;51.128;4.566;2023-05-09T11:55:09;14.90;99.90
10388;DHT22;5240;51.128;4.566;2023-05-09T11:57:39;14.90;99.90
10388;DHT22;5240;51.128;4.566;2023-05-09T12:00:07;14.80;99.90
10388;DHT22;5240;51.128;4.566;2023-05-09T12:07:45;14.80;99.90
10388;DHT22;5240;51.128;4.566;2023-05-09T12:10:14;14.70;99.90
10388;DHT22;5240;51.128;4.566;2023-05-09T12:12:42;14.80;99.90
10388;DHT22;5240;51.128;4.566;2023-05-09T12:15:10;14.90;99.90
10388;DHT22;5240;51.128;4.566;2023-05-09T12:17:38;14.80;99.90
10388;DHT22;5240;51.128;4.566;2023-05-09T12:20:07;14.80;99.90
10388;DHT22;5240;51.128;4.566;2023-05-09T12:22:35;14.70;99.90
10388;DHT22;5240;51.128;4.566;2023-05-09T12:25:06;14.80;99.90
10388;DHT22;5240;51.128;4.566;2023-05-09T12:27:36;14.80;99.90
10388;DHT22;5240;51.128;4.566;2023-05-09T12:30:05;14.70;99.90
10388;DHT22;5240;51.128;4.566;2023-05-09T12:32:33;14.70;99.90
10388;DHT22;5240;51.128;4.566;2023-05-09T12:35:01;14.70;99.90
10388;DHT22;5240;51.128;4.566;2023-05-09T12:37:30;14.70;99.90
10388;DHT22;5240;51.128;4.566;2023-05-09T12:42:47;14.70;99.90
10388;DHT22;5240;51.128;4.566;2023-05-09T12:45:15;14.80;99.90
10388;DHT22;5240;51.128;4.566;2023-05-09T12:47:43;14.80;99.90
10388;DHT22;5240;51.128;4.566;2023-05-09T13:03:20;14.70;99.90
10388;DHT22;5240;51.128;4.566;2023-05-09T13:05:58;14.70;99.90
10388;DHT22;5240;51.128;4.566;2023-05-09T13:08:40;14.70;99.90
10388;DHT22;5240;51.128;4.566;2023-05-09T13:11:09;14.70;99.90
10388;DHT22;5240;51.128;4.566;2023-05-09T13:13:37;14.80;99.90
10388;DHT22;5240;51.128;4.566;2023-05-09T13:16:06;14.80;99.90
10388;DHT22;5240;51.128;4.566;2023-05-09T13:18:35;14.80;99.90
10388;DHT22;5240;51.128;4.566;2023-05-09T13:21:02;14.80;99.90
10388;DHT22;5240;51.128;4.566;2023-05-09T13:23:31;14.80;99.90
10388;DHT22;5240;51.128;4.566;2023-05-09T13:25:58;14.80;99.90
10388;DHT22;5240;51.128;4.566;2023-05-09T13:28:26;14.90;99.90
10388;DHT22;5240;51.128;4.566;2023-05-09T13:30:53;14.90;99.90
10388;DHT22;5240;51.128;4.566;2023-05-09T13:33:20;14.90;99.90
10388;DHT22;5240;51.128;4.566;2023-05-09T13:35:48;14.90;99.90
10388;DHT22;5240;51.128;4.566;2023-05-09T13:38:15;14.80;99.90
10388;DHT22;5240;51.128;4.566;2023-05-09T13:40:49;14.80;99.90
10388;DHT22;5240;51.128;4.566;2023-05-09T13:46:07;14.80;99.90
10388;DHT22;5240;51.128;4.566;2023-05-09T13:48:36;14.90;99.90
10388;DHT22;5240;51.128;4.566;2023-05-09T13:51:05;14.90;99.90
10388;DHT22;5240;51.128;4.566;2023-05-09T13:53:34;14.80;99.90
10388;DHT22;5240;51.128;4.566;2023-05-09T13:56:02;14.80;99.90
10388;DHT22;5240;51.128;4.566;2023-05-09T13:58:32;14.80;99.90
10388;DHT22;5240;51.128;4.566;2023-05-09T14:01:00;14.80;99.90
10388;DHT22;5240;51.128;4.566;2023-05-09T14:03:27;14.70;99.90
10388;DHT22;5240;51.128;4.566;2023-05-09T14:05:54;14.70;99.90
10388;DHT22;5240;51.128;4.566;2023-05-09T14:08:23;14.70;99.90
10388;DHT22;5240;51.128;4.566;2023-05-09T14:10:50;14.50;99.90
10388;DHT22;5240;51.128;4.566;2023-05-09T14:13:18;14.50;99.90
10388;DHT22;5240;51.128;4.566;2023-05-09T14:15:45;14.40;99.90
10388;DHT22;5240;51.128;4.566;2023-05-09T14:18:13;14.40;99.90
10388;DHT22;5240;51.128;4.566;2023-05-09T14:20:40;14.40;99.90
10388;DHT22;5240;51.128;4.566;2023-05-09T14:23:07;14.30;99.90
10388;DHT22;5240;51.128;4.566;2023-05-09T14:25:36;14.30;99.90
10388;DHT22;5240;51.128;4.566;2023-05-09T14:28:03;14.30;99.90
10388;DHT22;5240;51.128;4.566;2023-05-09T14:30:31;14.40;99.90
10388;DHT22;5240;51.128;4.566;2023-05-09T14:32:58;14.30;99.90
10388;DHT22;5240;51.128;4.566;2023-05-09T14:35:26;14.30;99.90
10388;DHT22;5240;51.128;4.566;2023-05-09T14:37:56;14.30;99.90
10388;DHT22;5240;51.128;4.566;2023-05-09T14:40:24;14.30;99.90
10388;DHT22;5240;51.128;4.566;2023-05-09T14:42:57;14.20;99.90
10388;DHT22;5240;51.128;4.566;2023-05-09T14:45:27;14.10;99.90
10388;DHT22;5240;51.128;4.566;2023-05-09T14:47:54;14.10;99.90
10388;DHT22;5240;51.128;4.566;2023-05-09T14:50:21;14.20;99.90
10388;DHT22;5240;51.128;4.566;2023-05-09T14:52:48;14.20;99.90
10388;DHT22;5240;51.128;4.566;2023-05-09T14:55:15;14.20;99.90
10388;DHT22;5240;51.128;4.566;2023-05-09T14:57:42;14.10;99.90
10388;DHT22;5240;51.128;4.566;2023-05-09T15:00:12;14.10;99.90
10388;DHT22;5240;51.128;4.566;2023-05-09T15:02:41;14.10;99.90
10388;DHT22;5240;51.128;4.566;2023-05-09T15:05:08;14.10;99.90
10388;DHT22;5240;51.128;4.566;2023-05-09T15:07:36;14.10;99.90
10388;DHT22;5240;51.128;4.566;2023-05-09T15:10:03;14.00;99.90
10388;DHT22;5240;51.128;4.566;2023-05-09T15:12:31;14.00;99.90
10388;DHT22;5240;51.128;4.566;2023-05-09T15:15:12;14.00;99.90
10388;DHT22;5240;51.128;4.566;2023-05-09T15:17:40;14.10;99.90
10388;DHT22;5240;51.128;4.566;2023-05-09T15:20:07;14.10;99.90
10388;DHT22;5240;51.128;4.566;2023-05-09T15:22:35;14.00;99.90
10388;DHT22;5240;51.128;4.566;2023-05-09T15:25:02;14.10;99.90
10388;DHT22;5240;51.128;4.566;2023-05-09T15:27:30;14.00;99.90
10388;DHT22;5240;51.128;4.566;2023-05-09T15:29:57;14.00;99.90
10388;DHT22;5240;51.128;4.566;2023-05-09T15:32:26;14.10;99.90
10388;DHT22;5240;51.128;4.566;2023-05-09T15:34:53;14.10;99.90
10388;DHT22;5240;51.128;4.566;2023-05-09T15:37:20;14.10;99.90
10388;DHT22;5240;51.128;4.566;2023-05-09T15:39:47;14.10;99.90
10388;DHT22;5240;51.128;4.566;2023-05-09T15:42:14;14.20;99.90
10388;DHT22;5240;51.128;4.566;2023-05-09T15:44:42;14.20;99.90
10388;DHT22;5240;51.128;4.566;2023-05-09T15:47:09;14.10;99.90
10388;DHT22;5240;51.128;4.566;2023-05-09T15:49:38;14.10;99.90
10388;DHT22;5240;51.128;4.566;2023-05-09T15:52:06;14.10;99.90
10388;DHT22;5240;51.128;4.566;2023-05-09T15:54:35;14.10;99.90
10388;DHT22;5240;51.128;4.566;2023-05-09T15:57:02;14.10;99.90
10388;DHT22;5240;51.128;4.566;2023-05-09T15:59:29;14.10;99.90
10388;DHT22;5240;51.128;4.566;2023-05-09T16:01:56;14.10;99.90
10388;DHT22;5240;51.128;4.566;2023-05-09T16:04:24;14.10;99.90
10388;DHT22;5240;51.128;4.566;2023-05-09T16:06:52;14.20;99.90
10388;DHT22;5240;51.128;4.566;2023-05-09T16:09:20;14.20;99.90
10388;DHT22;5240;51.128;4.566;2023-05-09T16:11:47;14.10;99.90
10388;DHT22;5240;51.128;4.566;2023-05-09T16:14:14;14.20;99.90
10388;DHT22;5240;51.128;4.566;2023-05-09T16:16:41;14.20;99.90
10388;DHT22;5240;51.128;4.566;2023-05-09T16:19:08;14.20;99.90
10388;DHT22;5240;51.128;4.566;2023-05-09T16:21:35;14.20;99.90
10388;DHT22;5240;51.128;4.566;2023-05-09T16:24:11;14.20;99.90
10388;DHT22;5240;51.128;4.566;2023-05-09T16:26:38;14.20;99.90
10388;DHT22;5240;51.128;4.566;2023-05-09T16:29:05;14.20;99.90
10388;DHT22;5240;51.128;4.566;2023-05-09T16:31:32;14.20;99.90
10388;DHT22;5240;51.128;4.566;2023-05-09T16:33:59;14.10;99.90
10388;DHT22;5240;51.128;4.566;2023-05-09T16:36:26;14.10;99.90
10388;DHT22;5240;51.128;4.566;2023-05-09T16:38:54;14.10;99.90
10388;DHT22;5240;51.128;4.566;2023-05-09T16:41:22;14.20;99.90
10388;DHT22;5240;51.128;4.566;2023-05-09T16:43:49;14.30;99.90
10388;DHT22;5240;51.128;4.566;2023-05-09T16:46:17;14.30;99.90
10388;DHT22;5240;51.128;4.566;2023-05-09T16:48:44;14.30;99.90
10388;DHT22;5240;51.128;4.566;2023-05-09T16:51:11;14.30;99.90
10388;DHT22;5240;51.128;4.566;2023-05-09T16:53:38;14.40;99.90
10388;DHT22;5240;51.128;4.566;2023-05-09T16:56:05;14.40;99.90
10388;DHT22;5240;51.128;4.566;2023-05-09T16:58:36;14.40;99.90
10388;DHT22;5240;51.128;4.566;2023-05-09T17:01:04;14.50;99.90
10388;DHT22;5240;51.128;4.566;2023-05-09T17:03:31;14.30;99.90
10388;DHT22;5240;51.128;4.566;2023-05-09T17:05:58;14.30;99.90
10388;DHT22;5240;51.128;4.566;2023-05-09T17:08:25;14.40;99.90